sensor_id;sensor_type;location;lat;lon;timestamp;P1;durP1;ratioP1;P2;durP2;ratioP2
67456;SDS011;54319;52.038;4.640;2022-12-01T00:00:32;61.90;;;13.40;;
67456;SDS011;54319;52.038;4.640;2022-12-01T00:02:59;106.90;;;14.65;;
67456;SDS011;54319;52.038;4.640;2022-12-01T00:05:26;55.80;;;13.57;;
67456;SDS011;54319;52.038;4.640;2022-12-01T00:07:54;88.25;;;14.70;;
67456;SDS011;54319;52.038;4.640;2022-12-01T00:10:21;52.47;;;14.15;;
67456;SDS011;54319;52.038;4.640;2022-12-01T00:12:50;52.28;;;13.45;;
67456;SDS011;54319;52.038;4.640;2022-12-01T00:15:17;38.55;;;12.93;;
67456;SDS011;54319;52.038;4.640;2022-12-01T00:17:45;27.08;;;13.15;;
67456;SDS011;54319;52.038;4.640;2022-12-01T00:20:13;31.17;;;14.18;;
67456;SDS011;54319;52.038;4.640;2022-12-01T00:22:41;32.78;;;14.13;;
67456;SDS011;54319;52.038;4.640;2022-12-01T00:25:08;39.83;;;15.18;;
67456;SDS011;54319;52.038;4.640;2022-12-01T00:27:36;32.13;;;14.25;;
67456;SDS011;54319;52.038;4.640;2022-12-01T00:30:03;31.98;;;14.93;;
67456;SDS011;54319;52.038;4.640;2022-12-01T00:32:31;32.92;;;14.65;;
67456;SDS011;54319;52.038;4.640;2022-12-01T00:34:59;31.63;;;14.52;;
67456;SDS011;54319;52.038;4.640;2022-12-01T00:37:28;42.88;;;16.05;;
67456;SDS011;54319;52.038;4.640;2022-12-01T00:39:55;40.25;;;16.48;;
67456;SDS011;54319;52.038;4.640;2022-12-01T00:42:22;40.95;;;16.65;;
67456;SDS011;54319;52.038;4.640;2022-12-01T00:44:49;40.63;;;16.88;;
67456;SDS011;54319;52.038;4.640;2022-12-01T00:47:16;40.00;;;17.50;;
67456;SDS011;54319;52.038;4.640;2022-12-01T00:49:44;37.63;;;17.30;;
67456;SDS011;54319;52.038;4.640;2022-12-01T00:52:15;43.50;;;17.58;;
67456;SDS011;54319;52.038;4.640;2022-12-01T00:54:42;48.35;;;18.08;;
67456;SDS011;54319;52.038;4.640;2022-12-01T00:57:09;48.58;;;18.05;;
67456;SDS011;54319;52.038;4.640;2022-12-01T00:59:36;42.23;;;17.73;;
67456;SDS011;54319;52.038;4.640;2022-12-01T01:02:03;52.80;;;18.02;;
67456;SDS011;54319;52.038;4.640;2022-12-01T01:04:31;59.72;;;20.70;;
67456;SDS011;54319;52.038;4.640;2022-12-01T01:07:00;50.50;;;20.48;;
67456;SDS011;54319;52.038;4.640;2022-12-01T01:09:29;61.42;;;20.88;;
67456;SDS011;54319;52.038;4.640;2022-12-01T01:11:59;66.05;;;22.88;;
67456;SDS011;54319;52.038;4.640;2022-12-01T01:14:26;61.83;;;21.45;;
67456;SDS011;54319;52.038;4.640;2022-12-01T01:16:53;60.50;;;21.92;;
67456;SDS011;54319;52.038;4.640;2022-12-01T01:19:20;65.90;;;22.75;;
67456;SDS011;54319;52.038;4.640;2022-12-01T01:21:48;61.70;;;22.00;;
67456;SDS011;54319;52.038;4.640;2022-12-01T01:24:15;66.65;;;22.80;;
67456;SDS011;54319;52.038;4.640;2022-12-01T01:26:43;58.08;;;21.27;;
67456;SDS011;54319;52.038;4.640;2022-12-01T01:29:10;61.08;;;22.15;;
67456;SDS011;54319;52.038;4.640;2022-12-01T01:31:36;71.13;;;23.83;;
67456;SDS011;54319;52.038;4.640;2022-12-01T01:34:04;64.43;;;22.27;;
67456;SDS011;54319;52.038;4.640;2022-12-01T01:36:32;66.28;;;23.75;;
67456;SDS011;54319;52.038;4.640;2022-12-01T01:38:59;65.28;;;22.38;;
67456;SDS011;54319;52.038;4.640;2022-12-01T01:41:26;65.40;;;22.63;;
67456;SDS011;54319;52.038;4.640;2022-12-01T01:43:56;64.63;;;22.70;;
67456;SDS011;54319;52.038;4.640;2022-12-01T01:46:26;79.95;;;25.00;;
67456;SDS011;54319;52.038;4.640;2022-12-01T01:48:55;76.82;;;24.33;;
67456;SDS011;54319;52.038;4.640;2022-12-01T01:51:25;64.75;;;24.95;;
67456;SDS011;54319;52.038;4.640;2022-12-01T01:53:55;72.20;;;24.95;;
67456;SDS011;54319;52.038;4.640;2022-12-01T01:56:27;68.82;;;25.20;;
67456;SDS011;54319;52.038;4.640;2022-12-01T01:58:57;77.78;;;25.63;;
67456;SDS011;54319;52.038;4.640;2022-12-01T02:01:24;91.53;;;26.45;;
67456;SDS011;54319;52.038;4.640;2022-12-01T02:03:51;73.32;;;26.15;;
67456;SDS011;54319;52.038;4.640;2022-12-01T02:06:19;86.47;;;25.65;;
67456;SDS011;54319;52.038;4.640;2022-12-01T02:08:47;76.65;;;25.33;;
67456;SDS011;54319;52.038;4.640;2022-12-01T02:11:32;76.47;;;24.83;;
67456;SDS011;54319;52.038;4.640;2022-12-01T02:14:17;77.38;;;26.02;;
67456;SDS011;54319;52.038;4.640;2022-12-01T02:17:04;72.78;;;25.17;;
67456;SDS011;54319;52.038;4.640;2022-12-01T02:19:56;73.75;;;25.02;;
67456;SDS011;54319;52.038;4.640;2022-12-01T02:22:47;67.90;;;24.27;;
67456;SDS011;54319;52.038;4.640;2022-12-01T02:25:31;73.90;;;25.02;;
67456;SDS011;54319;52.038;4.640;2022-12-01T02:28:26;73.90;;;24.30;;
67456;SDS011;54319;52.038;4.640;2022-12-01T02:31:16;89.88;;;26.60;;
67456;SDS011;54319;52.038;4.640;2022-12-01T02:33:50;87.13;;;25.75;;
67456;SDS011;54319;52.038;4.640;2022-12-01T02:36:22;78.07;;;25.60;;
67456;SDS011;54319;52.038;4.640;2022-12-01T02:39:02;77.82;;;25.15;;
67456;SDS011;54319;52.038;4.640;2022-12-01T02:41:35;74.15;;;25.05;;
67456;SDS011;54319;52.038;4.640;2022-12-01T02:44:05;84.45;;;26.08;;
67456;SDS011;54319;52.038;4.640;2022-12-01T02:46:38;90.35;;;25.10;;
67456;SDS011;54319;52.038;4.640;2022-12-01T02:49:11;79.68;;;25.25;;
67456;SDS011;54319;52.038;4.640;2022-12-01T02:51:41;83.15;;;25.15;;
67456;SDS011;54319;52.038;4.640;2022-12-01T02:54:12;85.88;;;25.38;;
67456;SDS011;54319;52.038;4.640;2022-12-01T02:56:42;81.80;;;26.25;;
67456;SDS011;54319;52.038;4.640;2022-12-01T02:59:10;86.30;;;25.65;;
67456;SDS011;54319;52.038;4.640;2022-12-01T03:01:44;78.15;;;25.42;;
67456;SDS011;54319;52.038;4.640;2022-12-01T03:04:28;90.18;;;26.25;;
67456;SDS011;54319;52.038;4.640;2022-12-01T03:07:09;77.43;;;25.92;;
67456;SDS011;54319;52.038;4.640;2022-12-01T03:09:49;85.03;;;26.38;;
67456;SDS011;54319;52.038;4.640;2022-12-01T03:12:29;84.10;;;25.60;;
67456;SDS011;54319;52.038;4.640;2022-12-01T03:15:02;81.10;;;26.77;;
67456;SDS011;54319;52.038;4.640;2022-12-01T03:17:37;84.93;;;25.95;;
67456;SDS011;54319;52.038;4.640;2022-12-01T03:20:11;77.82;;;25.75;;
67456;SDS011;54319;52.038;4.640;2022-12-01T03:22:47;75.25;;;24.77;;
67456;SDS011;54319;52.038;4.640;2022-12-01T03:25:19;70.25;;;23.05;;
67456;SDS011;54319;52.038;4.640;2022-12-01T03:27:50;70.82;;;23.88;;
67456;SDS011;54319;52.038;4.640;2022-12-01T03:30:21;65.88;;;22.00;;
67456;SDS011;54319;52.038;4.640;2022-12-01T03:32:52;75.05;;;23.58;;
67456;SDS011;54319;52.038;4.640;2022-12-01T03:35:26;71.22;;;23.83;;
67456;SDS011;54319;52.038;4.640;2022-12-01T03:37:59;73.65;;;23.85;;
67456;SDS011;54319;52.038;4.640;2022-12-01T03:40:30;82.28;;;22.92;;
67456;SDS011;54319;52.038;4.640;2022-12-01T03:43:04;62.50;;;22.20;;
67456;SDS011;54319;52.038;4.640;2022-12-01T03:45:39;70.75;;;21.77;;
67456;SDS011;54319;52.038;4.640;2022-12-01T03:48:14;56.67;;;21.02;;
67456;SDS011;54319;52.038;4.640;2022-12-01T03:50:43;62.38;;;19.00;;
67456;SDS011;54319;52.038;4.640;2022-12-01T03:53:22;110.38;;;18.27;;
67456;SDS011;54319;52.038;4.640;2022-12-01T03:55:59;89.50;;;18.55;;
67456;SDS011;54319;52.038;4.640;2022-12-01T03:58:29;71.65;;;18.88;;
67456;SDS011;54319;52.038;4.640;2022-12-01T04:01:00;92.53;;;17.80;;
67456;SDS011;54319;52.038;4.640;2022-12-01T04:03:29;98.18;;;18.58;;
67456;SDS011;54319;52.038;4.640;2022-12-01T04:05:56;88.63;;;18.50;;
67456;SDS011;54319;52.038;4.640;2022-12-01T04:08:25;72.50;;;19.75;;
67456;SDS011;54319;52.038;4.640;2022-12-01T04:10:51;54.25;;;18.80;;
67456;SDS011;54319;52.038;4.640;2022-12-01T04:18:14;52.13;;;17.50;;
67456;SDS011;54319;52.038;4.640;2022-12-01T04:20:43;34.67;;;16.47;;
67456;SDS011;54319;52.038;4.640;2022-12-01T04:23:11;72.25;;;17.42;;
67456;SDS011;54319;52.038;4.640;2022-12-01T04:25:59;76.78;;;17.67;;
67456;SDS011;54319;52.038;4.640;2022-12-01T04:28:28;95.18;;;17.42;;
67456;SDS011;54319;52.038;4.640;2022-12-01T04:30:55;72.65;;;17.77;;
67456;SDS011;54319;52.038;4.640;2022-12-01T04:33:22;95.95;;;17.90;;
67456;SDS011;54319;52.038;4.640;2022-12-01T04:35:57;62.28;;;16.95;;
67456;SDS011;54319;52.038;4.640;2022-12-01T04:38:25;48.53;;;17.02;;
67456;SDS011;54319;52.038;4.640;2022-12-01T04:40:52;39.67;;;17.92;;
67456;SDS011;54319;52.038;4.640;2022-12-01T04:43:19;40.80;;;17.23;;
67456;SDS011;54319;52.038;4.640;2022-12-01T04:45:46;47.60;;;17.83;;
67456;SDS011;54319;52.038;4.640;2022-12-01T04:50:40;43.42;;;18.48;;
67456;SDS011;54319;52.038;4.640;2022-12-01T04:53:08;52.20;;;19.65;;
67456;SDS011;54319;52.038;4.640;2022-12-01T04:55:35;48.53;;;18.20;;
67456;SDS011;54319;52.038;4.640;2022-12-01T04:58:03;54.78;;;20.60;;
67456;SDS011;54319;52.038;4.640;2022-12-01T05:00:30;59.67;;;20.83;;
67456;SDS011;54319;52.038;4.640;2022-12-01T05:02:59;87.45;;;21.80;;
67456;SDS011;54319;52.038;4.640;2022-12-01T05:05:26;60.08;;;21.20;;
67456;SDS011;54319;52.038;4.640;2022-12-01T05:10:21;64.65;;;19.50;;
67456;SDS011;54319;52.038;4.640;2022-12-01T05:12:49;73.18;;;21.77;;
67456;SDS011;54319;52.038;4.640;2022-12-01T05:15:17;83.55;;;21.90;;
67456;SDS011;54319;52.038;4.640;2022-12-01T05:17:44;91.07;;;23.10;;
67456;SDS011;54319;52.038;4.640;2022-12-01T05:20:13;68.25;;;22.77;;
67456;SDS011;54319;52.038;4.640;2022-12-01T05:23:05;73.40;;;21.05;;
67456;SDS011;54319;52.038;4.640;2022-12-01T05:25:33;60.97;;;20.90;;
67456;SDS011;54319;52.038;4.640;2022-12-01T05:28:01;64.93;;;21.50;;
67456;SDS011;54319;52.038;4.640;2022-12-01T05:30:28;62.03;;;20.50;;
67456;SDS011;54319;52.038;4.640;2022-12-01T05:32:55;52.08;;;19.05;;
67456;SDS011;54319;52.038;4.640;2022-12-01T05:35:21;63.53;;;21.15;;
67456;SDS011;54319;52.038;4.640;2022-12-01T05:37:48;65.88;;;20.67;;
67456;SDS011;54319;52.038;4.640;2022-12-01T05:40:15;60.28;;;20.80;;
67456;SDS011;54319;52.038;4.640;2022-12-01T05:45:11;53.63;;;19.80;;
67456;SDS011;54319;52.038;4.640;2022-12-01T05:47:39;50.83;;;19.50;;
67456;SDS011;54319;52.038;4.640;2022-12-01T05:50:06;62.80;;;21.60;;
67456;SDS011;54319;52.038;4.640;2022-12-01T05:52:34;60.78;;;21.13;;
67456;SDS011;54319;52.038;4.640;2022-12-01T05:55:01;60.40;;;21.52;;
67456;SDS011;54319;52.038;4.640;2022-12-01T05:57:58;53.45;;;20.95;;
67456;SDS011;54319;52.038;4.640;2022-12-01T06:00:27;63.60;;;20.58;;
67456;SDS011;54319;52.038;4.640;2022-12-01T06:02:55;62.78;;;21.25;;
67456;SDS011;54319;52.038;4.640;2022-12-01T06:05:21;63.97;;;22.70;;
67456;SDS011;54319;52.038;4.640;2022-12-01T06:07:49;62.00;;;20.80;;
67456;SDS011;54319;52.038;4.640;2022-12-01T06:10:17;66.47;;;21.75;;
67456;SDS011;54319;52.038;4.640;2022-12-01T06:12:44;59.58;;;20.55;;
67456;SDS011;54319;52.038;4.640;2022-12-01T06:15:12;83.70;;;23.05;;
67456;SDS011;54319;52.038;4.640;2022-12-01T06:17:39;67.82;;;22.35;;
67456;SDS011;54319;52.038;4.640;2022-12-01T06:20:06;69.18;;;24.00;;
67456;SDS011;54319;52.038;4.640;2022-12-01T06:22:35;82.25;;;23.23;;
67456;SDS011;54319;52.038;4.640;2022-12-01T06:25:02;65.25;;;21.80;;
67456;SDS011;54319;52.038;4.640;2022-12-01T06:27:30;65.80;;;21.80;;
67456;SDS011;54319;52.038;4.640;2022-12-01T06:29:56;68.90;;;20.95;;
67456;SDS011;54319;52.038;4.640;2022-12-01T06:32:25;63.63;;;20.35;;
67456;SDS011;54319;52.038;4.640;2022-12-01T06:34:51;59.63;;;21.17;;
67456;SDS011;54319;52.038;4.640;2022-12-01T06:37:18;59.75;;;20.63;;
67456;SDS011;54319;52.038;4.640;2022-12-01T06:39:45;56.28;;;19.98;;
67456;SDS011;54319;52.038;4.640;2022-12-01T06:42:12;53.10;;;19.83;;
67456;SDS011;54319;52.038;4.640;2022-12-01T06:44:39;52.30;;;20.67;;
67456;SDS011;54319;52.038;4.640;2022-12-01T06:47:08;56.95;;;20.73;;
67456;SDS011;54319;52.038;4.640;2022-12-01T06:49:36;59.97;;;20.23;;
67456;SDS011;54319;52.038;4.640;2022-12-01T06:52:08;62.33;;;19.60;;
67456;SDS011;54319;52.038;4.640;2022-12-01T06:54:35;65.50;;;20.83;;
67456;SDS011;54319;52.038;4.640;2022-12-01T06:57:05;59.75;;;19.70;;
67456;SDS011;54319;52.038;4.640;2022-12-01T06:59:31;54.28;;;19.63;;
67456;SDS011;54319;52.038;4.640;2022-12-01T07:01:58;58.38;;;19.73;;
67456;SDS011;54319;52.038;4.640;2022-12-01T07:04:27;49.20;;;19.23;;
67456;SDS011;54319;52.038;4.640;2022-12-01T07:06:56;59.85;;;20.52;;
67456;SDS011;54319;52.038;4.640;2022-12-01T07:09:24;57.67;;;20.15;;
67456;SDS011;54319;52.038;4.640;2022-12-01T07:11:54;52.70;;;19.17;;
67456;SDS011;54319;52.038;4.640;2022-12-01T07:14:21;51.83;;;20.67;;
67456;SDS011;54319;52.038;4.640;2022-12-01T07:16:50;58.88;;;22.15;;
67456;SDS011;54319;52.038;4.640;2022-12-01T07:19:17;59.90;;;19.80;;
67456;SDS011;54319;52.038;4.640;2022-12-01T07:21:44;67.30;;;20.60;;
67456;SDS011;54319;52.038;4.640;2022-12-01T07:24:12;57.97;;;20.27;;
67456;SDS011;54319;52.038;4.640;2022-12-01T07:26:39;64.15;;;21.02;;
67456;SDS011;54319;52.038;4.640;2022-12-01T07:31:34;54.50;;;19.85;;
67456;SDS011;54319;52.038;4.640;2022-12-01T07:34:01;58.20;;;21.02;;
67456;SDS011;54319;52.038;4.640;2022-12-01T07:36:28;63.38;;;21.00;;
67456;SDS011;54319;52.038;4.640;2022-12-01T07:38:55;66.32;;;21.30;;
67456;SDS011;54319;52.038;4.640;2022-12-01T07:41:23;61.17;;;20.63;;
67456;SDS011;54319;52.038;4.640;2022-12-01T07:43:50;58.78;;;21.65;;
67456;SDS011;54319;52.038;4.640;2022-12-01T07:46:18;67.97;;;22.33;;
67456;SDS011;54319;52.038;4.640;2022-12-01T07:48:47;67.07;;;22.50;;
67456;SDS011;54319;52.038;4.640;2022-12-01T07:51:14;64.85;;;22.55;;
67456;SDS011;54319;52.038;4.640;2022-12-01T07:53:42;57.80;;;21.63;;
67456;SDS011;54319;52.038;4.640;2022-12-01T07:56:09;61.55;;;22.42;;
67456;SDS011;54319;52.038;4.640;2022-12-01T07:58:37;69.80;;;22.58;;
67456;SDS011;54319;52.038;4.640;2022-12-01T08:01:05;63.13;;;21.40;;
67456;SDS011;54319;52.038;4.640;2022-12-01T08:03:33;77.93;;;24.02;;
67456;SDS011;54319;52.038;4.640;2022-12-01T08:06:00;74.07;;;23.13;;
67456;SDS011;54319;52.038;4.640;2022-12-01T08:08:29;96.47;;;25.10;;
67456;SDS011;54319;52.038;4.640;2022-12-01T08:10:58;86.78;;;26.20;;
67456;SDS011;54319;52.038;4.640;2022-12-01T08:13:26;91.60;;;25.90;;
67456;SDS011;54319;52.038;4.640;2022-12-01T08:15:55;100.18;;;26.58;;
67456;SDS011;54319;52.038;4.640;2022-12-01T08:18:23;90.30;;;25.88;;
67456;SDS011;54319;52.038;4.640;2022-12-01T08:20:49;88.63;;;26.47;;
67456;SDS011;54319;52.038;4.640;2022-12-01T08:23:16;88.03;;;24.90;;
67456;SDS011;54319;52.038;4.640;2022-12-01T08:25:43;99.70;;;26.05;;
67456;SDS011;54319;52.038;4.640;2022-12-01T08:30:37;86.43;;;23.90;;
67456;SDS011;54319;52.038;4.640;2022-12-01T08:33:05;92.20;;;26.58;;
67456;SDS011;54319;52.038;4.640;2022-12-01T08:35:34;106.63;;;27.70;;
67456;SDS011;54319;52.038;4.640;2022-12-01T08:38:01;104.90;;;26.20;;
67456;SDS011;54319;52.038;4.640;2022-12-01T08:40:29;118.40;;;29.17;;
67456;SDS011;54319;52.038;4.640;2022-12-01T08:42:56;94.95;;;25.88;;
67456;SDS011;54319;52.038;4.640;2022-12-01T08:45:22;104.63;;;28.85;;
67456;SDS011;54319;52.038;4.640;2022-12-01T08:47:51;97.68;;;27.15;;
67456;SDS011;54319;52.038;4.640;2022-12-01T08:50:20;105.00;;;27.80;;
67456;SDS011;54319;52.038;4.640;2022-12-01T08:52:47;110.45;;;28.42;;
67456;SDS011;54319;52.038;4.640;2022-12-01T08:55:13;106.70;;;28.35;;
67456;SDS011;54319;52.038;4.640;2022-12-01T08:57:40;115.22;;;28.05;;
67456;SDS011;54319;52.038;4.640;2022-12-01T09:00:07;113.80;;;28.35;;
67456;SDS011;54319;52.038;4.640;2022-12-01T09:02:35;108.88;;;30.23;;
67456;SDS011;54319;52.038;4.640;2022-12-01T09:05:02;98.90;;;27.83;;
67456;SDS011;54319;52.038;4.640;2022-12-01T09:07:31;101.10;;;27.50;;
67456;SDS011;54319;52.038;4.640;2022-12-01T09:09:58;113.55;;;28.92;;
67456;SDS011;54319;52.038;4.640;2022-12-01T09:12:27;98.27;;;28.43;;
67456;SDS011;54319;52.038;4.640;2022-12-01T09:14:54;84.10;;;26.90;;
67456;SDS011;54319;52.038;4.640;2022-12-01T09:17:21;106.20;;;29.23;;
67456;SDS011;54319;52.038;4.640;2022-12-01T09:19:49;104.93;;;28.00;;
67456;SDS011;54319;52.038;4.640;2022-12-01T09:22:16;86.60;;;27.17;;
67456;SDS011;54319;52.038;4.640;2022-12-01T09:24:44;94.83;;;28.17;;
67456;SDS011;54319;52.038;4.640;2022-12-01T09:27:12;102.13;;;28.48;;
67456;SDS011;54319;52.038;4.640;2022-12-01T09:29:38;103.15;;;28.75;;
67456;SDS011;54319;52.038;4.640;2022-12-01T09:32:05;100.78;;;29.73;;
67456;SDS011;54319;52.038;4.640;2022-12-01T09:34:32;97.32;;;27.55;;
67456;SDS011;54319;52.038;4.640;2022-12-01T09:36:59;93.78;;;27.88;;
67456;SDS011;54319;52.038;4.640;2022-12-01T09:39:25;91.00;;;27.63;;
67456;SDS011;54319;52.038;4.640;2022-12-01T09:41:56;84.53;;;27.17;;
67456;SDS011;54319;52.038;4.640;2022-12-01T09:44:32;85.05;;;26.23;;
67456;SDS011;54319;52.038;4.640;2022-12-01T09:47:11;89.18;;;27.90;;
67456;SDS011;54319;52.038;4.640;2022-12-01T09:52:21;79.28;;;24.60;;
67456;SDS011;54319;52.038;4.640;2022-12-01T09:54:50;83.03;;;26.20;;
67456;SDS011;54319;52.038;4.640;2022-12-01T09:57:24;75.72;;;26.48;;
67456;SDS011;54319;52.038;4.640;2022-12-01T09:59:54;74.55;;;25.42;;
67456;SDS011;54319;52.038;4.640;2022-12-01T10:02:26;72.55;;;24.40;;
67456;SDS011;54319;52.038;4.640;2022-12-01T10:04:59;81.70;;;25.25;;
67456;SDS011;54319;52.038;4.640;2022-12-01T10:07:30;79.13;;;26.52;;
67456;SDS011;54319;52.038;4.640;2022-12-01T10:10:01;78.25;;;26.30;;
67456;SDS011;54319;52.038;4.640;2022-12-01T10:12:33;75.72;;;23.92;;
67456;SDS011;54319;52.038;4.640;2022-12-01T10:15:09;75.65;;;25.75;;
67456;SDS011;54319;52.038;4.640;2022-12-01T10:17:45;77.78;;;27.33;;
67456;SDS011;54319;52.038;4.640;2022-12-01T10:20:21;75.18;;;26.02;;
67456;SDS011;54319;52.038;4.640;2022-12-01T10:22:56;73.35;;;25.38;;
67456;SDS011;54319;52.038;4.640;2022-12-01T10:25:35;62.33;;;22.80;;
67456;SDS011;54319;52.038;4.640;2022-12-01T10:28:16;63.25;;;24.88;;
67456;SDS011;54319;52.038;4.640;2022-12-01T10:31:00;73.47;;;24.45;;
67456;SDS011;54319;52.038;4.640;2022-12-01T10:33:34;66.20;;;23.48;;
67456;SDS011;54319;52.038;4.640;2022-12-01T10:36:10;70.18;;;24.73;;
67456;SDS011;54319;52.038;4.640;2022-12-01T10:38:38;65.75;;;23.65;;
67456;SDS011;54319;52.038;4.640;2022-12-01T10:41:04;68.32;;;24.17;;
67456;SDS011;54319;52.038;4.640;2022-12-01T10:43:41;61.95;;;22.58;;
67456;SDS011;54319;52.038;4.640;2022-12-01T10:46:15;65.30;;;24.00;;
67456;SDS011;54319;52.038;4.640;2022-12-01T10:48:53;59.03;;;24.23;;
67456;SDS011;54319;52.038;4.640;2022-12-01T10:51:21;56.33;;;22.05;;
67456;SDS011;54319;52.038;4.640;2022-12-01T10:53:49;59.70;;;23.02;;
67456;SDS011;54319;52.038;4.640;2022-12-01T10:56:22;61.38;;;22.02;;
67456;SDS011;54319;52.038;4.640;2022-12-01T10:58:51;55.03;;;21.58;;
67456;SDS011;54319;52.038;4.640;2022-12-01T11:01:21;50.88;;;20.95;;
67456;SDS011;54319;52.038;4.640;2022-12-01T11:03:51;53.60;;;21.10;;
67456;SDS011;54319;52.038;4.640;2022-12-01T11:06:21;48.20;;;20.20;;
67456;SDS011;54319;52.038;4.640;2022-12-01T11:08:52;49.88;;;20.75;;
67456;SDS011;54319;52.038;4.640;2022-12-01T11:11:29;49.60;;;20.77;;
67456;SDS011;54319;52.038;4.640;2022-12-01T11:14:02;51.55;;;20.90;;
67456;SDS011;54319;52.038;4.640;2022-12-01T11:16:40;49.97;;;21.35;;
67456;SDS011;54319;52.038;4.640;2022-12-01T11:21:57;50.78;;;20.40;;
67456;SDS011;54319;52.038;4.640;2022-12-01T11:24:29;47.05;;;20.63;;
67456;SDS011;54319;52.038;4.640;2022-12-01T11:27:11;51.58;;;20.58;;
67456;SDS011;54319;52.038;4.640;2022-12-01T11:29:42;44.58;;;20.45;;
67456;SDS011;54319;52.038;4.640;2022-12-01T11:32:15;45.80;;;19.65;;
67456;SDS011;54319;52.038;4.640;2022-12-01T11:34:50;44.00;;;19.63;;
67456;SDS011;54319;52.038;4.640;2022-12-01T11:37:22;47.13;;;20.08;;
67456;SDS011;54319;52.038;4.640;2022-12-01T11:39:51;52.30;;;20.80;;
67456;SDS011;54319;52.038;4.640;2022-12-01T11:42:20;45.80;;;19.97;;
67456;SDS011;54319;52.038;4.640;2022-12-01T11:44:52;49.75;;;19.10;;
67456;SDS011;54319;52.038;4.640;2022-12-01T11:47:23;54.53;;;20.88;;
67456;SDS011;54319;52.038;4.640;2022-12-01T11:49:52;44.25;;;19.52;;
67456;SDS011;54319;52.038;4.640;2022-12-01T11:52:25;47.45;;;20.58;;
67456;SDS011;54319;52.038;4.640;2022-12-01T11:54:59;46.67;;;20.50;;
67456;SDS011;54319;52.038;4.640;2022-12-01T11:57:28;44.10;;;19.23;;
67456;SDS011;54319;52.038;4.640;2022-12-01T11:59:59;43.83;;;19.00;;
67456;SDS011;54319;52.038;4.640;2022-12-01T12:02:28;44.03;;;18.80;;
67456;SDS011;54319;52.038;4.640;2022-12-01T12:08:02;43.78;;;18.23;;
67456;SDS011;54319;52.038;4.640;2022-12-01T12:10:41;45.38;;;19.70;;
67456;SDS011;54319;52.038;4.640;2022-12-01T12:13:30;46.60;;;18.37;;
67456;SDS011;54319;52.038;4.640;2022-12-01T12:16:21;36.75;;;17.52;;
67456;SDS011;54319;52.038;4.640;2022-12-01T12:19:04;37.15;;;17.05;;
67456;SDS011;54319;52.038;4.640;2022-12-01T12:21:46;38.60;;;17.30;;
67456;SDS011;54319;52.038;4.640;2022-12-01T12:24:35;42.22;;;18.20;;
67456;SDS011;54319;52.038;4.640;2022-12-01T12:27:17;41.30;;;17.27;;
67456;SDS011;54319;52.038;4.640;2022-12-01T12:29:57;38.38;;;17.63;;
67456;SDS011;54319;52.038;4.640;2022-12-01T12:32:36;40.80;;;17.88;;
67456;SDS011;54319;52.038;4.640;2022-12-01T12:35:17;43.50;;;17.10;;
67456;SDS011;54319;52.038;4.640;2022-12-01T12:37:56;43.03;;;18.33;;
67456;SDS011;54319;52.038;4.640;2022-12-01T12:40:37;36.28;;;16.83;;
67456;SDS011;54319;52.038;4.640;2022-12-01T12:43:18;36.53;;;16.73;;
67456;SDS011;54319;52.038;4.640;2022-12-01T12:48:53;36.42;;;15.85;;
67456;SDS011;54319;52.038;4.640;2022-12-01T12:51:35;41.20;;;17.02;;
67456;SDS011;54319;52.038;4.640;2022-12-01T12:54:09;39.58;;;16.80;;
67456;SDS011;54319;52.038;4.640;2022-12-01T12:56:45;41.08;;;17.88;;
67456;SDS011;54319;52.038;4.640;2022-12-01T12:59:15;38.13;;;16.05;;
67456;SDS011;54319;52.038;4.640;2022-12-01T13:01:49;39.30;;;15.68;;
67456;SDS011;54319;52.038;4.640;2022-12-01T13:04:24;37.53;;;16.10;;
67456;SDS011;54319;52.038;4.640;2022-12-01T13:06:59;38.80;;;16.40;;
67456;SDS011;54319;52.038;4.640;2022-12-01T13:09:30;36.03;;;15.55;;
67456;SDS011;54319;52.038;4.640;2022-12-01T13:12:04;34.92;;;14.95;;
67456;SDS011;54319;52.038;4.640;2022-12-01T13:14:40;35.88;;;15.50;;
67456;SDS011;54319;52.038;4.640;2022-12-01T13:17:13;31.67;;;14.05;;
67456;SDS011;54319;52.038;4.640;2022-12-01T13:19:45;29.58;;;13.48;;
67456;SDS011;54319;52.038;4.640;2022-12-01T13:22:14;35.03;;;14.32;;
67456;SDS011;54319;52.038;4.640;2022-12-01T13:24:42;31.10;;;15.10;;
67456;SDS011;54319;52.038;4.640;2022-12-01T13:27:12;32.30;;;14.68;;
67456;SDS011;54319;52.038;4.640;2022-12-01T13:29:44;33.92;;;14.25;;
67456;SDS011;54319;52.038;4.640;2022-12-01T13:32:26;33.85;;;14.70;;
67456;SDS011;54319;52.038;4.640;2022-12-01T13:35:00;33.78;;;14.32;;
67456;SDS011;54319;52.038;4.640;2022-12-01T13:37:32;30.23;;;14.55;;
67456;SDS011;54319;52.038;4.640;2022-12-01T13:40:06;39.63;;;15.52;;
67456;SDS011;54319;52.038;4.640;2022-12-01T13:42:36;34.78;;;13.90;;
67456;SDS011;54319;52.038;4.640;2022-12-01T13:47:37;32.30;;;13.23;;
67456;SDS011;54319;52.038;4.640;2022-12-01T13:53:31;27.60;;;13.13;;
67456;SDS011;54319;52.038;4.640;2022-12-01T13:56:03;30.27;;;13.68;;
67456;SDS011;54319;52.038;4.640;2022-12-01T13:58:49;30.13;;;13.43;;
67456;SDS011;54319;52.038;4.640;2022-12-01T14:01:40;31.13;;;13.52;;
67456;SDS011;54319;52.038;4.640;2022-12-01T14:04:22;29.05;;;13.52;;
67456;SDS011;54319;52.038;4.640;2022-12-01T14:09:53;26.20;;;11.93;;
67456;SDS011;54319;52.038;4.640;2022-12-01T14:12:25;26.40;;;12.50;;
67456;SDS011;54319;52.038;4.640;2022-12-01T14:14:58;26.63;;;12.52;;
67456;SDS011;54319;52.038;4.640;2022-12-01T14:17:31;31.52;;;12.75;;
67456;SDS011;54319;52.038;4.640;2022-12-01T14:20:03;26.20;;;12.65;;
67456;SDS011;54319;52.038;4.640;2022-12-01T14:22:43;27.17;;;12.73;;
67456;SDS011;54319;52.038;4.640;2022-12-01T14:25:21;29.25;;;13.32;;
67456;SDS011;54319;52.038;4.640;2022-12-01T14:27:51;29.58;;;12.93;;
67456;SDS011;54319;52.038;4.640;2022-12-01T14:33:41;31.08;;;13.15;;
67456;SDS011;54319;52.038;4.640;2022-12-01T14:36:13;25.67;;;12.75;;
67456;SDS011;54319;52.038;4.640;2022-12-01T14:38:45;29.50;;;12.93;;
67456;SDS011;54319;52.038;4.640;2022-12-01T14:41:20;24.50;;;12.18;;
67456;SDS011;54319;52.038;4.640;2022-12-01T14:43:49;24.75;;;12.23;;
67456;SDS011;54319;52.038;4.640;2022-12-01T14:46:30;28.05;;;12.25;;
67456;SDS011;54319;52.038;4.640;2022-12-01T14:49:04;27.15;;;12.80;;
67456;SDS011;54319;52.038;4.640;2022-12-01T14:54:01;24.60;;;11.98;;
67456;SDS011;54319;52.038;4.640;2022-12-01T14:56:46;26.67;;;12.43;;
67456;SDS011;54319;52.038;4.640;2022-12-01T14:59:18;29.70;;;12.82;;
67456;SDS011;54319;52.038;4.640;2022-12-01T15:01:49;27.60;;;12.57;;
67456;SDS011;54319;52.038;4.640;2022-12-01T15:04:17;26.63;;;12.18;;
67456;SDS011;54319;52.038;4.640;2022-12-01T15:06:45;28.13;;;12.30;;
67456;SDS011;54319;52.038;4.640;2022-12-01T15:09:12;26.00;;;12.85;;
67456;SDS011;54319;52.038;4.640;2022-12-01T15:11:49;29.85;;;14.15;;
67456;SDS011;54319;52.038;4.640;2022-12-01T15:14:27;31.92;;;14.18;;
67456;SDS011;54319;52.038;4.640;2022-12-01T15:16:57;25.23;;;12.45;;
67456;SDS011;54319;52.038;4.640;2022-12-01T15:19:29;25.60;;;12.55;;
67456;SDS011;54319;52.038;4.640;2022-12-01T15:22:02;24.75;;;13.30;;
67456;SDS011;54319;52.038;4.640;2022-12-01T15:24:32;26.23;;;12.30;;
67456;SDS011;54319;52.038;4.640;2022-12-01T15:27:00;23.15;;;12.80;;